createdAt,value
2016-02-27T00:00:35.000Z,23.25
2016-02-27T00:01:35.048Z,23.33
2016-02-27T00:02:35.035Z,23.19
2016-02-27T00:03:35.023Z,23.32
2016-02-27T00:04:35.025Z,23.23
2016-02-27T00:05:35.027Z,23.13
2016-02-27T00:06:35.046Z,23.33
2016-02-27T00:07:35.065Z,23.23
2016-02-27T00:08:35.036Z,23.19
2016-02-27T00:09:35.054Z,23.33
2016-02-27T00:10:35.041Z,23.32
2016-02-27T00:11:35.059Z,23.27
2016-02-27T00:12:35.078Z,23.32
2016-02-27T00:13:35.065Z,23.23
2016-02-27T00:14:35.084Z,23.35
2016-02-27T00:16:11.586Z,23.16
2016-02-27T00:16:35.104Z,23.25
2016-02-27T00:17:35.092Z,23.33
2016-02-27T00:18:35.142Z,23.25
2016-02-27T00:19:35.097Z,23.28
2016-02-27T00:20:35.115Z,23.22
2016-02-27T00:21:35.118Z,23.31
2016-02-27T00:22:35.120Z,23.31
2016-02-27T00:23:35.123Z,23.36
2016-02-27T00:24:35.141Z,23.27
2016-02-27T00:25:35.128Z,23.33
2016-02-27T00:26:35.163Z,23.27
2016-02-27T00:27:35.133Z,23.27
2016-02-27T00:28:35.152Z,23.27
2016-02-27T00:29:35.171Z,23.31
2016-02-27T00:30:35.157Z,23.31
2016-02-27T00:31:35.177Z,23.36
2016-02-27T00:32:35.163Z,23.25
2016-02-27T00:33:35.213Z,23.2
2016-02-27T00:34:35.200Z,23.13
2016-02-27T00:35:35.188Z,23.2
2016-02-27T00:36:35.205Z,23.19
2016-02-27T00:37:35.224Z,23.17
2016-02-27T00:38:35.257Z,23.27
2016-02-27T00:39:35.229Z,23.23
2016-02-27T00:40:35.232Z,23.17
2016-02-27T00:41:35.218Z,23.22
2016-02-27T00:42:35.237Z,23.35
2016-02-27T00:43:35.255Z,23.35
2016-02-27T00:44:35.242Z,23.12
2016-02-27T00:48:14.750Z,23.17
2016-02-27T00:49:14.738Z,23.35
2016-02-27T00:50:14.756Z,23.23
2016-02-27T00:51:14.742Z,23.22
2016-02-27T00:52:14.620Z,23.23
2016-02-27T00:53:14.764Z,23.17
2016-02-27T00:54:14.782Z,23.23
2016-02-27T00:55:14.769Z,23.19
2016-02-27T00:56:14.803Z,23.2
2016-02-27T00:57:14.775Z,23.31
2016-02-27T00:58:14.808Z,23.2
2016-02-27T00:59:14.795Z,23.22
2016-02-27T01:00:14.845Z,23.23
2016-02-27T01:01:14.816Z,23.35
2016-02-27T01:02:14.819Z,23.25
2016-02-27T01:03:14.806Z,23.31
2016-02-27T01:04:14.825Z,23.28
2016-02-27T01:05:14.827Z,23.35
2016-02-27T01:06:14.846Z,23.23
2016-02-27T01:07:14.833Z,23.36
2016-02-27T01:08:14.836Z,23.31
2016-02-27T01:09:14.854Z,23.27
2016-02-27T01:10:14.857Z,23.35
2016-02-27T01:11:14.875Z,23.28
2016-02-27T01:12:14.862Z,23.33
2016-02-27T01:13:14.865Z,23.36
2016-02-27T01:14:14.882Z,23.31
2016-02-27T01:15:16.963Z,23.4
2016-02-27T01:16:14.888Z,23.33
2016-02-27T01:17:14.891Z,23.33
2016-02-27T01:18:14.893Z,23.33
2016-02-27T01:19:14.911Z,23.43
2016-02-27T01:20:14.931Z,23.4
2016-02-27T01:21:14.902Z,23.46
2016-02-27T01:22:14.920Z,23.39
2016-02-27T01:23:14.923Z,23.42
2016-02-27T01:24:14.926Z,23.38
2016-02-27T01:25:14.928Z,23.43
2016-02-27T01:26:14.947Z,23.42
2016-02-27T01:27:14.949Z,23.42
2016-02-27T01:28:14.952Z,23.46
2016-02-27T01:29:14.969Z,23.39
2016-02-27T01:30:14.972Z,23.48
2016-02-27T01:31:14.976Z,23.4
2016-02-27T01:32:14.963Z,23.46
2016-02-27T01:33:14.980Z,23.42
2016-02-27T01:34:14.984Z,23.43
2016-02-27T01:35:14.986Z,23.4
2016-02-27T01:36:14.989Z,23.4
2016-02-27T01:37:14.991Z,23.42
2016-02-27T01:38:15.010Z,23.4
2016-02-27T01:39:15.028Z,23.51
2016-02-27T01:40:15.015Z,23.46
2016-02-27T01:41:15.018Z,23.43
2016-02-27T01:42:15.021Z,23.33
2016-02-27T01:43:15.023Z,23.31
2016-02-27T01:44:15.041Z,23.33
2016-02-27T01:48:48.290Z,23.35
2016-02-27T01:49:48.292Z,23.2
2016-02-27T01:50:48.279Z,23.33
2016-02-27T01:51:48.297Z,23.32
2016-02-27T01:52:48.300Z,23.35
2016-02-27T01:53:48.303Z,23.31
2016-02-27T01:54:48.320Z,23.31
2016-02-27T01:55:48.356Z,23.31
2016-02-27T01:56:48.326Z,23.27
2016-02-27T01:57:48.329Z,23.27
2016-02-27T01:58:48.348Z,23.27
2016-02-27T01:59:48.350Z,23.32
2016-02-27T02:00:48.337Z,23.23
2016-02-27T02:01:48.355Z,23.31
2016-02-27T02:02:48.358Z,23.31
2016-02-27T02:03:48.392Z,23.17
2016-02-27T02:04:48.223Z,23.25
2016-02-27T02:05:48.383Z,23.2
2016-02-27T02:06:48.385Z,23.32
2016-02-27T02:07:48.388Z,23.35
2016-02-27T02:08:48.390Z,23.38
2016-02-27T02:09:48.236Z,23.28
2016-02-27T02:10:48.239Z,23.2
2016-02-27T02:11:48.241Z,23.16
2016-02-27T02:12:48.401Z,23.19
2016-02-27T02:13:48.418Z,23.2
2016-02-27T02:14:48.422Z,23.31
2016-02-27T02:16:51.068Z,23.23
2016-02-27T02:17:03.709Z,23.35
2016-02-27T02:18:03.696Z,23.32
2016-02-27T02:19:03.714Z,23.25
2016-02-27T02:20:03.717Z,23.22
2016-02-27T02:21:03.719Z,23.23
2016-02-27T02:22:03.722Z,23.17
2016-02-27T02:23:03.726Z,23.19
2016-02-27T02:24:03.728Z,23.2
2016-02-27T02:25:03.746Z,23.17
2016-02-27T02:26:03.748Z,23.23
2016-02-27T02:27:03.751Z,23.27
2016-02-27T02:28:03.754Z,23.23
2016-02-27T02:29:03.756Z,23.19
2016-02-27T02:30:03.759Z,23.22
2016-02-27T02:31:03.762Z,23.13
2016-02-27T02:32:03.780Z,23.32
2016-02-27T02:33:03.798Z,23.2
2016-02-27T02:34:03.786Z,23.19
2016-02-27T02:35:03.773Z,23.2
2016-02-27T02:36:03.791Z,23.2
2016-02-27T02:37:03.809Z,23.2
2016-02-27T02:38:03.827Z,23.23
2016-02-27T02:39:03.814Z,23.28
2016-02-27T02:40:03.848Z,23.19
2016-02-27T02:41:03.819Z,23.19
2016-02-27T02:42:03.839Z,23.17
2016-02-27T02:43:03.825Z,23.22
2016-02-27T02:44:03.828Z,23.1
2016-02-27T02:45:03.846Z,23.15
2016-02-27T02:48:10.682Z,23.2
2016-02-27T02:49:10.685Z,23.28
2016-02-27T02:50:10.704Z,23.22
2016-02-27T02:51:10.691Z,23.13
2016-02-27T02:52:10.693Z,23.15
2016-02-27T02:53:10.712Z,23.28
2016-02-27T02:54:10.715Z,23.22
2016-02-27T02:55:10.732Z,23.22
2016-02-27T02:56:10.751Z,23.16
2016-02-27T02:57:10.722Z,23.22
2016-02-27T02:58:10.725Z,23.19
2016-02-27T02:59:10.743Z,23.15
2016-02-27T03:00:11.089Z,23.17
2016-02-27T03:01:10.749Z,23.19
2016-02-27T03:02:10.751Z,23.22
2016-02-27T03:03:10.770Z,23.16
2016-02-27T03:04:10.772Z,23.1
2016-02-27T03:05:10.775Z,23.2
2016-02-27T03:06:10.778Z,23.22
2016-02-27T03:07:10.780Z,23.2
2016-02-27T03:08:10.783Z,23.22
2016-02-27T03:09:10.786Z,23.17
2016-02-27T03:10:10.789Z,23.19
2016-02-27T03:11:10.791Z,23.19
2016-02-27T03:12:10.810Z,23.15
2016-02-27T03:13:10.828Z,23.22
2016-02-27T03:14:10.815Z,23.17
2016-02-27T03:15:10.818Z,23.2
2016-02-27T03:16:57.433Z,23.13
2016-02-27T03:17:26.121Z,23.19
2016-02-27T03:18:26.138Z,23.27
2016-02-27T03:19:26.172Z,23.19
2016-02-27T03:20:26.143Z,23.13
2016-02-27T03:21:26.146Z,23.2
2016-02-27T03:22:26.149Z,23.19
2016-02-27T03:23:26.151Z,23.12
2016-02-27T03:24:26.154Z,23.22
2016-02-27T03:25:26.157Z,23.13
2016-02-27T03:26:26.160Z,23.13
2016-02-27T03:27:26.162Z,23.16
2016-02-27T03:28:26.181Z,23.19
2016-02-27T03:29:26.184Z,23.19
2016-02-27T03:30:26.186Z,23.2
2016-02-27T03:31:26.189Z,23.1
2016-02-27T03:32:26.192Z,23.16
2016-02-27T03:33:26.209Z,23.15
2016-02-27T03:34:26.212Z,23.19
2016-02-27T03:35:26.214Z,23.16
2016-02-27T03:36:26.218Z,23.15
2016-02-27T03:37:26.236Z,23.12
2016-02-27T03:38:26.239Z,23.15
2016-02-27T03:39:26.242Z,23.22
2016-02-27T03:40:26.275Z,23.16
2016-02-27T03:41:26.247Z,23.22
2016-02-27T03:42:26.249Z,23.17
2016-02-27T03:43:26.252Z,23.19
2016-02-27T03:44:26.255Z,23.13
2016-02-27T03:48:35.750Z,23.17
2016-02-27T03:49:15.519Z,23.22
2016-02-27T03:50:15.537Z,23.17
2016-02-27T03:51:15.523Z,23.16
2016-02-27T03:52:15.543Z,23.13
2016-02-27T03:53:15.560Z,23.16
2016-02-27T03:54:15.548Z,23.13
2016-02-27T03:55:15.551Z,23.16
2016-02-27T03:56:15.553Z,23.16
2016-02-27T03:57:15.556Z,23.17
2016-02-27T03:58:15.573Z,23.09
2016-02-27T03:59:15.561Z,23.09
2016-02-27T04:00:15.579Z,23.16
2016-02-27T04:01:15.582Z,23.16
2016-02-27T04:02:15.523Z,23.15
2016-02-27T04:03:15.587Z,23.15
2016-02-27T04:04:15.606Z,23.13
2016-02-27T04:05:15.608Z,23.1
2016-02-27T04:06:15.611Z,23.1
2016-02-27T04:07:15.613Z,23.05
2016-02-27T04:08:15.648Z,23.07
2016-02-27T04:09:15.636Z,23.02
2016-02-27T04:10:15.638Z,23.07
2016-02-27T04:11:15.625Z,23.16
2016-02-27T04:12:15.644Z,23.05
2016-02-27T04:13:15.646Z,23.1
2016-02-27T04:14:15.649Z,23.15
2016-02-27T04:16:35.825Z,23.15
2016-02-27T04:17:35.843Z,23.15
2016-02-27T04:18:35.846Z,23.16
2016-02-27T04:19:35.850Z,23
2016-02-27T04:20:35.836Z,22.95
2016-02-27T04:21:35.855Z,23.13
2016-02-27T04:22:35.857Z,23.15
2016-02-27T04:23:35.860Z,23.02
2016-02-27T04:24:35.878Z,23.04
2016-02-27T04:25:35.882Z,23.01
2016-02-27T04:26:35.868Z,23.02
2016-02-27T04:27:35.887Z,23.07
2016-02-27T04:28:35.890Z,23
2016-02-27T04:29:35.892Z,23.07
2016-02-27T04:30:35.883Z,23.04
2016-02-27T04:31:35.873Z,23.15
2016-02-27T04:32:35.862Z,22.98
2016-02-27T04:33:35.852Z,23.09
2016-02-27T04:34:35.856Z,23.09
2016-02-27T04:35:35.839Z,23.04
2016-02-27T04:36:35.851Z,23.04
2016-02-27T04:37:35.834Z,23
2016-02-27T04:38:35.847Z,23.01
2016-02-27T04:39:35.844Z,23.13
2016-02-27T04:40:35.845Z,23.02
2016-02-27T04:41:35.862Z,23.09
2016-02-27T04:42:35.863Z,23.02
2016-02-27T04:43:35.865Z,23.15
2016-02-27T04:44:35.882Z,23.07
2016-02-27T04:48:36.060Z,23
2016-02-27T04:49:25.125Z,23.01
2016-02-27T04:50:25.127Z,23.07
2016-02-27T04:51:25.130Z,23.04
2016-02-27T04:52:25.148Z,23.01
2016-02-27T04:53:25.151Z,23.01
2016-02-27T04:54:25.168Z,23.04
2016-02-27T04:55:25.155Z,23.07
2016-02-27T04:56:25.158Z,23.04
2016-02-27T04:57:25.161Z,23.01
2016-02-27T04:58:25.006Z,23.01
2016-02-27T04:59:25.166Z,23.02
2016-02-27T05:00:25.183Z,23.07
2016-02-27T05:01:25.186Z,23.04
2016-02-27T05:02:25.190Z,23.04
2016-02-27T05:03:25.192Z,23
2016-02-27T05:04:25.195Z,23.07
2016-02-27T05:05:25.197Z,23
2016-02-27T05:06:25.200Z,23.09
2016-02-27T05:07:25.218Z,22.98
2016-02-27T05:08:25.221Z,22.97
2016-02-27T05:09:25.224Z,23
2016-02-27T05:10:25.227Z,23
2016-02-27T05:11:25.230Z,22.97
2016-02-27T05:12:25.247Z,23.04
2016-02-27T05:13:25.250Z,23
2016-02-27T05:14:25.284Z,23.05
2016-02-27T05:15:36.505Z,23.09
2016-02-27T05:16:25.274Z,23.02
2016-02-27T05:17:25.276Z,23
2016-02-27T05:18:25.264Z,23
2016-02-27T05:19:25.266Z,22.97
2016-02-27T05:20:25.269Z,22.97
2016-02-27T05:21:25.271Z,22.97
2016-02-27T05:22:25.290Z,23.04
2016-02-27T05:23:25.292Z,23.01
2016-02-27T05:24:25.295Z,22.98
2016-02-27T05:25:25.314Z,23.02
2016-02-27T05:26:25.317Z,23.04
2016-02-27T05:27:25.320Z,23.04
2016-02-27T05:28:25.306Z,23.04
2016-02-27T05:29:25.309Z,23.05
2016-02-27T05:30:25.328Z,23.01
2016-02-27T05:31:25.330Z,23
2016-02-27T05:32:25.395Z,23.04
2016-02-27T05:33:25.366Z,23.01
2016-02-27T05:34:25.370Z,23.02
2016-02-27T05:35:25.372Z,23.02
2016-02-27T05:36:25.344Z,23.05
2016-02-27T05:37:25.361Z,23
2016-02-27T05:38:25.380Z,23
2016-02-27T05:39:25.366Z,23.09
2016-02-27T05:40:25.369Z,23
2016-02-27T05:41:25.388Z,23.07
2016-02-27T05:42:25.375Z,23.07
2016-02-27T05:43:25.378Z,23
2016-02-27T05:44:25.396Z,23.02
2016-02-27T05:47:32.248Z,23.05
2016-02-27T05:48:32.235Z,23.02
2016-02-27T05:49:32.237Z,23.02
2016-02-27T05:50:32.241Z,23.01
2016-02-27T05:51:32.259Z,23.01
2016-02-27T05:52:32.277Z,23.01
2016-02-27T05:53:32.264Z,23.05
2016-02-27T05:54:32.314Z,23.05
2016-02-27T05:55:32.270Z,23
2016-02-27T05:56:32.272Z,23.02
2016-02-27T05:57:32.259Z,23.04
2016-02-27T05:58:32.293Z,23.01
2016-02-27T05:59:32.281Z,23.04
2016-02-27T06:00:32.283Z,23.01
2016-02-27T06:01:32.301Z,22.98
2016-02-27T06:02:32.320Z,23
2016-02-27T06:03:32.322Z,23.04
2016-02-27T06:04:32.309Z,23.01
2016-02-27T06:05:32.312Z,23.1
2016-02-27T06:06:32.330Z,23.1
2016-02-27T06:07:32.333Z,23.02
2016-02-27T06:08:32.335Z,23.05
2016-02-27T06:09:32.355Z,23.04
2016-02-27T06:10:32.357Z,23.04
2016-02-27T06:11:32.360Z,23.04
2016-02-27T06:12:32.362Z,23.01
2016-02-27T06:13:32.349Z,23.01
2016-02-27T06:14:32.368Z,23.07
2016-02-27T06:15:32.370Z,23.02
2016-02-27T06:16:32.373Z,23.15
2016-02-27T06:17:32.376Z,23.02
2016-02-27T06:18:32.394Z,23.19
2016-02-27T06:19:32.381Z,23.04
2016-02-27T06:20:32.430Z,23.12
2016-02-27T06:21:32.402Z,23.13
2016-02-27T06:22:32.404Z,23.16
2016-02-27T06:23:32.407Z,23.1
2016-02-27T06:24:32.425Z,23.15
2016-02-27T06:25:32.429Z,23.17
2016-02-27T06:26:32.446Z,23.17
2016-02-27T06:27:32.434Z,23.13
2016-02-27T06:28:32.437Z,23.15
2016-02-27T06:29:32.439Z,23.16
2016-02-27T06:30:32.442Z,23.27
2016-02-27T06:31:32.459Z,23.1
2016-02-27T06:32:32.462Z,23.15
2016-02-27T06:33:32.465Z,23.19
2016-02-27T06:34:32.468Z,23.17
2016-02-27T06:35:32.470Z,23.13
2016-02-27T06:36:32.473Z,23.19
2016-02-27T06:37:32.476Z,23.2
2016-02-27T06:38:32.478Z,23.27
2016-02-27T06:39:32.497Z,23.13
2016-02-27T06:40:32.499Z,23.17
2016-02-27T06:41:32.519Z,23.23
2016-02-27T06:42:32.505Z,23.22
2016-02-27T06:43:32.507Z,23.27
2016-02-27T06:44:32.510Z,23.17
2016-02-27T06:47:50.440Z,23.15
2016-02-27T06:48:50.459Z,23.12
2016-02-27T06:49:50.462Z,23.22
2016-02-27T06:50:50.465Z,23.15
2016-02-27T06:51:50.468Z,23.23
2016-02-27T06:52:50.470Z,23.27
2016-02-27T06:53:50.473Z,23.32
2016-02-27T06:54:50.491Z,23.27
2016-02-27T06:55:50.493Z,23.27
2016-02-27T06:56:50.511Z,23.22
2016-02-27T06:57:50.514Z,23.27
2016-02-27T06:58:50.501Z,23.23
2016-02-27T06:59:50.503Z,23.15
2016-02-27T07:00:50.554Z,23.22
2016-02-27T07:01:50.525Z,23.17
2016-02-27T07:02:50.528Z,23.16
2016-02-27T07:03:50.546Z,23.17
2016-02-27T07:04:50.548Z,23.23
2016-02-27T07:05:50.536Z,23.2
2016-02-27T07:06:50.538Z,23.19
2016-02-27T07:07:50.556Z,23.23
2016-02-27T07:08:50.560Z,23.2
2016-02-27T07:09:50.562Z,23.27
2016-02-27T07:10:50.565Z,23.19
2016-02-27T07:11:50.567Z,23.2
2016-02-27T07:12:50.570Z,23.13
2016-02-27T07:13:50.572Z,23.19
2016-02-27T07:14:50.575Z,23.19
2016-02-27T07:17:26.100Z,23.17
2016-02-27T07:18:26.102Z,23.17
2016-02-27T07:19:26.121Z,23.23
2016-02-27T07:20:26.123Z,23.23
2016-02-27T07:21:26.126Z,23.15
2016-02-27T07:22:26.128Z,23.2
2016-02-27T07:23:26.131Z,23.16
2016-02-27T07:24:26.135Z,23.19
2016-02-27T07:25:26.137Z,23.2
2016-02-27T07:26:26.140Z,23.23
2016-02-27T07:27:26.157Z,23.2
2016-02-27T07:28:26.160Z,23.19
2016-02-27T07:29:26.178Z,23.35
2016-02-27T07:30:26.165Z,23.43
2016-02-27T07:31:26.184Z,23.42
2016-02-27T07:32:26.187Z,23.58
2016-02-27T07:33:26.190Z,23.7
2016-02-27T07:34:26.192Z,23.83
2016-02-27T07:35:26.195Z,23.93
2016-02-27T07:36:26.228Z,24.02
2016-02-27T07:37:26.247Z,24.22
2016-02-27T07:38:26.202Z,24.31
2016-02-27T07:39:26.221Z,24.5
2016-02-27T07:40:26.225Z,24.55
2016-02-27T07:41:26.227Z,24.65
2016-02-27T07:42:26.230Z,24.77
2016-02-27T07:43:26.075Z,24.88
2016-02-27T07:44:26.235Z,25.02
2016-02-27T07:45:26.252Z,24.91
2016-02-27T07:46:26.255Z,25.09
2016-02-27T07:47:26.274Z,25.06
2016-02-27T07:48:26.261Z,25.18
2016-02-27T07:49:26.280Z,25.15
2016-02-27T07:50:26.282Z,25.25
2016-02-27T07:51:26.285Z,25.38
2016-02-27T07:52:26.288Z,25.45
2016-02-27T07:53:26.290Z,25.39
2016-02-27T07:54:26.293Z,25.39
2016-02-27T07:55:26.295Z,25.43
2016-02-27T07:56:26.313Z,25.43
2016-02-27T07:57:26.207Z,25.4
2016-02-27T07:58:26.350Z,25.54
2016-02-27T07:59:26.321Z,25.42
2016-02-27T08:00:26.324Z,25.43
2016-02-27T08:01:26.343Z,25.43
2016-02-27T08:02:26.345Z,25.46
2016-02-27T08:03:26.348Z,25.45
2016-02-27T08:04:26.382Z,25.5
2016-02-27T08:05:26.370Z,25.46
2016-02-27T08:06:26.372Z,25.51
2016-02-27T08:07:26.218Z,25.64
2016-02-27T08:08:26.393Z,25.61
2016-02-27T08:09:26.395Z,25.72
2016-02-27T08:10:26.398Z,25.82
2016-02-27T08:11:26.400Z,25.85
2016-02-27T08:12:26.419Z,25.9
2016-02-27T08:13:26.422Z,25.87
2016-02-27T08:14:26.440Z,25.9
2016-02-27T08:19:18.344Z,25.99
2016-02-27T08:19:31.016Z,25.94
2016-02-27T08:20:31.019Z,26.01
2016-02-27T08:21:31.038Z,26.02
2016-02-27T08:22:31.041Z,25.95
2016-02-27T08:23:31.043Z,25.9
2016-02-27T08:24:31.060Z,25.92
2016-02-27T08:25:31.080Z,25.88
2016-02-27T08:26:31.082Z,25.91
2016-02-27T08:27:31.101Z,25.91
2016-02-27T08:28:31.118Z,25.92
2016-02-27T08:29:31.137Z,25.87
2016-02-27T08:30:31.139Z,25.76
2016-02-27T08:31:31.143Z,25.83
2016-02-27T08:32:31.160Z,25.77
2016-02-27T08:33:31.179Z,25.77
2016-02-27T08:34:31.181Z,25.82
2016-02-27T08:35:31.200Z,25.82
2016-02-27T08:36:31.218Z,25.75
2016-02-27T08:37:31.221Z,25.76
2016-02-27T08:38:31.240Z,25.76
2016-02-27T08:39:31.258Z,25.83
2016-02-27T08:40:31.276Z,25.87
2016-02-27T08:41:31.295Z,25.83
2016-02-27T08:42:31.297Z,25.95
2016-02-27T08:43:31.300Z,25.97
2016-02-27T08:44:31.350Z,25.97
2016-02-27T08:46:33.980Z,26.1
2016-02-27T08:46:46.620Z,26.12
2016-02-27T08:47:46.622Z,26.1
2016-02-27T08:48:46.641Z,26.2
2016-02-27T08:49:46.674Z,26.12
2016-02-27T08:50:46.678Z,26.25
2016-02-27T08:51:46.696Z,26.21
2016-02-27T08:52:46.714Z,26.25
2016-02-27T08:53:46.733Z,26.32
2016-02-27T08:54:46.735Z,26.39
2016-02-27T08:55:46.754Z,26.47
2016-02-27T08:56:46.757Z,26.44
2016-02-27T08:57:46.774Z,26.47
2016-02-27T08:58:46.793Z,26.45
2016-02-27T08:59:46.811Z,26.48
2016-02-27T09:00:46.814Z,26.45
2016-02-27T09:01:46.832Z,26.47
2016-02-27T09:02:46.851Z,26.47
2016-02-27T09:03:46.869Z,26.43
2016-02-27T09:04:46.903Z,26.44
2016-02-27T09:05:46.906Z,26.48
2016-02-27T09:06:46.923Z,26.51
2016-02-27T09:07:46.926Z,26.62
2016-02-27T09:08:46.929Z,26.51
2016-02-27T09:09:46.947Z,26.52
2016-02-27T09:10:46.966Z,26.65
2016-02-27T09:11:46.984Z,26.66
2016-02-27T09:12:46.987Z,26.69
2016-02-27T09:13:47.006Z,26.76
2016-02-27T09:14:47.023Z,26.91
2016-02-27T09:17:00.906Z,27.29
2016-02-27T09:17:13.563Z,27.34
2016-02-27T09:18:13.613Z,27.62
2016-02-27T09:19:13.583Z,27.78
2016-02-27T09:20:13.602Z,27.99
2016-02-27T09:21:13.621Z,28.29
2016-02-27T09:22:13.623Z,28.49
2016-02-27T09:23:13.641Z,28.76
2016-02-27T09:24:13.675Z,29.04
2016-02-27T09:25:13.677Z,29.21
2016-02-27T09:26:13.681Z,29.31
2016-02-27T09:27:13.699Z,29.43
2016-02-27T09:28:13.701Z,29.6
2016-02-27T09:29:13.721Z,29.65
2016-02-27T09:30:13.738Z,29.76
2016-02-27T09:31:13.757Z,29.63
2016-02-27T09:32:13.759Z,29.55
2016-02-27T09:33:13.809Z,29.64
2016-02-27T09:34:13.795Z,29.61
2016-02-27T09:35:13.814Z,29.41
2016-02-27T09:36:13.817Z,29.45
2016-02-27T09:37:13.835Z,29.31
2016-02-27T09:38:13.932Z,29.28
2016-02-27T09:39:13.872Z,29.21
2016-02-27T09:40:13.875Z,29.21
2016-02-27T09:41:13.893Z,29.19
2016-02-27T09:42:13.911Z,29.21
2016-02-27T09:43:13.945Z,29.26
2016-02-27T09:44:13.948Z,29
2016-02-27T09:48:47.255Z,28.43
2016-02-27T09:49:47.227Z,28.29
2016-02-27T09:50:47.230Z,28.15
2016-02-27T09:51:47.232Z,28.07
2016-02-27T09:52:47.250Z,27.97
2016-02-27T09:53:47.252Z,27.67
2016-02-27T09:54:47.272Z,26.99
2016-02-27T09:55:47.275Z,25.82
2016-02-27T09:56:47.277Z,24.78
2016-02-27T09:57:47.296Z,24.12
2016-02-27T09:58:47.314Z,23.84
2016-02-27T09:59:47.316Z,23.54
2016-02-27T10:00:47.179Z,23.51
2016-02-27T10:01:47.353Z,23.4
2016-02-27T10:02:47.340Z,23.33
2016-02-27T10:03:47.187Z,23.25
2016-02-27T10:04:47.345Z,23.16
2016-02-27T10:05:47.583Z,23.13
2016-02-27T10:06:47.367Z,23.17
2016-02-27T10:07:47.384Z,23.17
2016-02-27T10:08:47.388Z,23.25
2016-02-27T10:09:47.390Z,23.12
2016-02-27T10:10:47.409Z,23.02
2016-02-27T10:11:47.411Z,23.02
2016-02-27T10:12:47.414Z,23.01
2016-02-27T10:13:47.417Z,23.02
2016-02-27T10:14:47.434Z,23.07
2016-02-27T10:19:41.870Z,23.4
2016-02-27T10:19:54.527Z,23.43
2016-02-27T10:20:54.530Z,23.57
2016-02-27T10:21:54.532Z,23.68
2016-02-27T10:22:54.550Z,23.88
2016-02-27T10:23:54.568Z,23.95
2016-02-27T10:24:54.571Z,24.08
2016-02-27T10:25:54.605Z,24.22
2016-02-27T10:26:54.577Z,24.39
2016-02-27T10:27:54.579Z,24.45
2016-02-27T10:28:54.582Z,24.52
2016-02-27T10:29:54.585Z,24.71
2016-02-27T10:30:54.602Z,24.78
2016-02-27T10:31:54.621Z,24.8
2016-02-27T10:32:54.624Z,24.85
2016-02-27T10:33:54.610Z,24.87
2016-02-27T10:34:54.629Z,24.85
2016-02-27T10:35:54.632Z,24.76
2016-02-27T10:36:54.650Z,24.85
2016-02-27T10:37:54.668Z,24.91
2016-02-27T10:38:54.656Z,24.8
2016-02-27T10:39:54.673Z,24.87
2016-02-27T10:40:54.661Z,24.93
2016-02-27T10:41:54.679Z,25.08
2016-02-27T10:42:54.682Z,25.09
2016-02-27T10:43:54.684Z,25
2016-02-27T10:44:54.703Z,24.99
2016-02-27T10:46:14.911Z,24.9
2016-02-27T10:46:54.708Z,24.9
2016-02-27T10:47:54.711Z,24.95
2016-02-27T10:48:54.714Z,24.87
2016-02-27T10:49:54.733Z,24.87
2016-02-27T10:50:54.735Z,24.93
2016-02-27T10:51:54.738Z,24.91
2016-02-27T10:52:54.740Z,25.02
2016-02-27T10:53:54.758Z,25.14
2016-02-27T10:54:54.777Z,25.1
2016-02-27T10:55:54.780Z,25.05
2016-02-27T10:56:54.767Z,24.95
2016-02-27T10:57:54.785Z,24.88
2016-02-27T10:58:54.788Z,24.87
2016-02-27T10:59:54.791Z,24.83
2016-02-27T11:00:54.824Z,24.96
2016-02-27T11:01:54.811Z,24.81
2016-02-27T11:02:54.813Z,24.78
2016-02-27T11:03:54.816Z,24.83
2016-02-27T11:04:54.835Z,24.9
2016-02-27T11:05:54.837Z,24.69
2016-02-27T11:06:54.856Z,24.71
2016-02-27T11:07:54.843Z,24.69
2016-02-27T11:08:54.862Z,24.62
2016-02-27T11:09:54.864Z,24.52
2016-02-27T11:10:54.867Z,24.5
2016-02-27T11:11:54.869Z,24.55
2016-02-27T11:12:54.887Z,24.46
2016-02-27T11:13:54.875Z,24.4
2016-02-27T11:14:54.893Z,24.34
2016-02-27T11:16:15.133Z,24.24
2016-02-27T11:16:54.914Z,24.22
2016-02-27T11:17:54.901Z,24.16
2016-02-27T11:18:54.935Z,24.1
2016-02-27T11:19:54.938Z,24.02
2016-02-27T11:20:54.941Z,24
2016-02-27T11:21:54.928Z,23.98
2016-02-27T11:22:54.962Z,24.06
2016-02-27T11:23:54.949Z,24.05
2016-02-27T11:24:54.983Z,23.88
2016-02-27T11:25:54.970Z,23.9
2016-02-27T11:26:54.972Z,23.97
2016-02-27T11:27:54.991Z,23.93
2016-02-27T11:28:54.993Z,23.98
2016-02-27T11:29:54.997Z,23.95
2016-02-27T11:30:54.999Z,24.06
2016-02-27T11:31:55.002Z,24.05
2016-02-27T11:32:55.020Z,23.95
2016-02-27T11:33:55.006Z,24.08
2016-02-27T11:34:55.024Z,23.97
2016-02-27T11:35:55.027Z,24
2016-02-27T11:36:55.030Z,24.09
2016-02-27T11:37:55.049Z,24.09
2016-02-27T11:38:55.052Z,24.06
2016-02-27T11:39:55.054Z,24.08
2016-02-27T11:40:55.057Z,24.09
2016-02-27T11:41:55.075Z,24.13
2016-02-27T11:42:54.921Z,24.24
2016-02-27T11:43:55.081Z,24.21
2016-02-27T11:44:55.083Z,24.22
2016-02-27T11:47:30.607Z,24.22
2016-02-27T11:48:30.641Z,24.13
2016-02-27T11:49:30.659Z,24.13
2016-02-27T11:50:30.630Z,24.18
2016-02-27T11:51:30.649Z,24.2
2016-02-27T11:52:30.636Z,24.12
2016-02-27T11:53:30.639Z,24.1
2016-02-27T11:54:30.642Z,24.02
2016-02-27T11:55:30.566Z,23.98
2016-02-27T11:56:30.678Z,24
2016-02-27T11:57:30.665Z,24.02
2016-02-27T11:58:30.699Z,24.13
2016-02-27T11:59:30.686Z,24.03
2016-02-27T12:00:30.704Z,24.03
2016-02-27T12:01:30.692Z,24.02
2016-02-27T12:02:30.710Z,24.02
2016-02-27T12:03:30.713Z,24.08
2016-02-27T12:04:30.746Z,24.08
2016-02-27T12:05:30.733Z,24.2
2016-02-27T12:06:30.752Z,24.2
2016-02-27T12:07:30.738Z,24.22
2016-02-27T12:08:30.757Z,24.13
2016-02-27T12:09:30.744Z,24.18
2016-02-27T12:10:30.763Z,24.18
2016-02-27T12:11:30.749Z,24.18
2016-02-27T12:12:30.768Z,24.18
2016-02-27T12:13:30.770Z,24.2
2016-02-27T12:14:30.789Z,24.22
2016-02-27T12:16:22.325Z,24.22
2016-02-27T12:16:34.997Z,24.28
2016-02-27T12:17:35.001Z,24.22
2016-02-27T12:18:35.018Z,24.2
2016-02-27T12:19:35.021Z,24.2
2016-02-27T12:20:35.008Z,24.21
2016-02-27T12:21:35.026Z,24.22
2016-02-27T12:22:35.029Z,24.24
2016-02-27T12:23:35.048Z,24.25
2016-02-27T12:24:35.050Z,24.3
2016-02-27T12:25:35.069Z,24.31
2016-02-27T12:26:35.056Z,24.22
2016-02-27T12:27:35.074Z,24.27
2016-02-27T12:28:35.061Z,24.22
2016-02-27T12:29:35.080Z,24.3
2016-02-27T12:30:35.066Z,24.21
2016-02-27T12:31:35.100Z,24.25
2016-02-27T12:32:35.088Z,24.28
2016-02-27T12:33:35.122Z,24.27
2016-02-27T12:34:35.108Z,24.27
2016-02-27T12:35:35.096Z,24.28
2016-02-27T12:36:35.114Z,24.24
2016-02-27T12:37:35.132Z,24.22
2016-02-27T12:38:35.119Z,24.34
2016-02-27T12:39:35.154Z,24.2
2016-02-27T12:40:35.140Z,24.2
2016-02-27T12:41:35.159Z,24.31
2016-02-27T12:42:35.146Z,24.22
2016-02-27T12:43:35.164Z,24.27
2016-02-27T12:44:35.167Z,24.21
2016-02-27T12:46:17.734Z,24.3
2016-02-27T12:46:35.172Z,24.3
2016-02-27T12:47:35.175Z,24.28
2016-02-27T12:48:35.037Z,24.27
2016-02-27T12:49:35.195Z,24.22
2016-02-27T12:50:35.198Z,24.25
2016-02-27T12:51:35.217Z,24.24
2016-02-27T12:52:35.204Z,24.3
2016-02-27T12:53:35.222Z,24.28
2016-02-27T12:54:35.240Z,24.25
2016-02-27T12:55:35.227Z,24.31
2016-02-27T12:56:35.230Z,24.2
2016-02-27T12:57:35.248Z,24.21
2016-02-27T12:58:35.283Z,24.2
2016-02-27T12:59:35.253Z,24.22
2016-02-27T13:00:35.256Z,24.3
2016-02-27T13:01:35.259Z,24.3
2016-02-27T13:02:35.293Z,24.25
2016-02-27T13:03:35.280Z,24.31
2016-02-27T13:04:35.282Z,24.25
2016-02-27T13:05:35.286Z,24.27
2016-02-27T13:06:35.288Z,24.21
2016-02-27T13:07:35.307Z,24.22
2016-02-27T13:08:35.294Z,24.27
2016-02-27T13:09:35.327Z,24.25
2016-02-27T13:10:35.377Z,24.22
2016-02-27T13:11:35.332Z,24.22
2016-02-27T13:12:35.335Z,24.22
2016-02-27T13:13:35.338Z,24.2
2016-02-27T13:14:35.341Z,24.27
2016-02-27T13:20:42.529Z,24.3
2016-02-27T13:21:42.548Z,24.28
2016-02-27T13:22:42.550Z,24.25
2016-02-27T13:23:42.568Z,24.6
2016-02-27T13:24:42.556Z,25.2
2016-02-27T13:25:42.589Z,25.77
2016-02-27T13:26:42.576Z,25.83
2016-02-27T13:27:42.579Z,25.24
2016-02-27T13:28:42.582Z,24.91
2016-02-27T13:29:42.600Z,24.77
2016-02-27T13:30:42.603Z,24.68
2016-02-27T13:31:42.605Z,24.85
2016-02-27T13:32:42.608Z,25.09
2016-02-27T13:33:42.626Z,25.33
2016-02-27T13:34:42.629Z,25.05
2016-02-27T13:35:42.630Z,25.13
2016-02-27T13:36:42.619Z,25.02